Time;durP1;ratioP1;P1;durP2;ratioP2;P2;SDS_P1;SDS_P2;PMS_P1;PMS_P2;Temp;Humidity;BMP_temperature;BMP_pressure;BME280_temperature;BME280_humidity;BME280_pressure;Samples;Min_cycle;Max_cycle;Signal;HPM_P1;HPM_P2
2021/09/19 00:00:39;;;;;;;2.80;2.53;;;;;;;12.92;100.00;101011.88;5134912;27;20168;-73
2021/09/19 00:03:05;;;;;;;4.20;3.20;;;;;;;12.88;100.00;101016.38;5134789;27;20179;-73
2021/09/19 00:05:30;;;;;;;4.37;2.63;;;;;;;12.87;100.00;101011.16;5134506;27;20184;-73
2021/09/19 00:07:55;;;;;;;3.43;2.50;;;;;;;12.83;100.00;101005.50;5135034;27;20177;-73
2021/09/19 00:10:21;;;;;;;2.87;2.57;;;;;;;12.87;100.00;101011.16;5135032;27;20187;-73
2021/09/19 00:12:47;;;;;;;2.27;2.17;;;;;;;12.83;100.00;101013.75;5134621;27;20249;-73
2021/09/19 00:15:18;;;;;;;2.67;2.40;;;;;;;12.82;100.00;101012.13;5134306;27;20599;-73
2021/09/19 00:17:43;;;;;;;4.53;2.40;;;;;;;12.84;100.00;101004.38;5134629;27;20182;-73
2021/09/19 00:20:10;;;;;;;4.97;2.40;;;;;;;12.85;100.00;101008.75;5134613;27;20247;-73
2021/09/19 00:22:36;;;;;;;2.70;2.50;;;;;;;12.82;100.00;101004.69;5134517;27;20200;-73
2021/09/19 00:25:03;;;;;;;2.17;1.97;;;;;;;12.87;100.00;101002.94;5133864;27;20168;-73
2021/09/19 00:27:29;;;;;;;3.80;2.47;;;;;;;12.79;100.00;101004.53;5115908;27;20225;-73
2021/09/19 00:29:54;;;;;;;2.73;2.53;;;;;;;12.81;100.00;101010.50;5134045;27;20176;-73
2021/09/19 00:32:19;;;;;;;4.07;2.57;;;;;;;12.79;100.00;101005.34;5134428;27;20217;-73
2021/09/19 00:34:45;;;;;;;2.90;2.40;;;;;;;12.82;100.00;101006.63;5134134;27;20219;-73
2021/09/19 00:37:10;;;;;;;2.80;2.23;;;;;;;12.75;100.00;101006.28;5134120;27;20169;-73
2021/09/19 00:39:35;;;;;;;2.30;2.10;;;;;;;12.85;100.00;101010.69;5133869;27;20207;-73
2021/09/19 00:42:01;;;;;;;2.50;2.30;;;;;;;12.78;100.00;101005.66;5133790;27;20204;-73
2021/09/19 00:44:27;;;;;;;4.10;2.50;;;;;;;12.88;100.00;101010.09;5133457;27;20215;-73
2021/09/19 00:46:54;;;;;;;2.80;2.60;;;;;;;12.78;100.00;101006.47;5133483;27;20628;-73
2021/09/19 00:49:19;;;;;;;2.80;2.33;;;;;;;12.72;100.00;101004.94;5133428;27;20225;-73
2021/09/19 00:51:45;;;;;;;2.93;2.63;;;;;;;12.76;100.00;101007.91;5133622;27;20188;-73
2021/09/19 00:54:13;;;;;;;2.50;2.27;;;;;;;12.77;100.00;101007.59;5133674;27;20238;-73
2021/09/19 00:56:40;;;;;;;5.17;2.30;;;;;;;12.79;100.00;101008.06;5133939;27;20169;-73
2021/09/19 00:59:08;;;;;;;3.40;2.70;;;;;;;12.83;100.00;101002.78;5133981;27;20859;-73
2021/09/19 01:01:34;;;;;;;3.33;2.40;;;;;;;12.78;100.00;101000.16;5133646;27;20265;-73
2021/09/19 01:04:01;;;;;;;4.80;2.67;;;;;;;12.77;100.00;101002.09;5133388;27;20180;-73
2021/09/19 01:06:27;;;;;;;2.53;2.33;;;;;;;12.83;100.00;101002.78;5133720;27;20161;-73
2021/09/19 01:08:53;;;;;;;3.40;3.07;;;;;;;12.78;100.00;100994.69;5133692;27;20212;-73
2021/09/19 01:11:20;;;;;;;2.60;2.40;;;;;;;12.74;100.00;100989.03;5132953;27;20164;-73
2021/09/19 01:13:47;;;;;;;3.73;2.67;;;;;;;12.71;100.00;100986.88;5132667;27;20215;-73
2021/09/19 01:16:16;;;;;;;2.97;2.67;;;;;;;12.80;100.00;100995.19;5133008;27;20662;-73
2021/09/19 01:18:43;;;;;;;3.03;2.30;;;;;;;12.85;100.00;100994.22;5133510;27;20553;-73
2021/09/19 01:21:10;;;;;;;3.27;2.67;;;;;;;12.90;100.00;100991.38;5133440;27;20279;-73
2021/09/19 01:23:55;;;;;;;3.30;3.00;;;;;;;13.00;100.00;100989.16;5133120;27;20173;-73
2021/09/19 01:26:21;;;;;;;3.30;2.53;;;;;;;12.84;100.00;100981.63;5133521;27;20161;-73
2021/09/19 01:28:46;;;;;;;4.33;3.03;;;;;;;12.84;100.00;100976.16;5133289;27;20259;-73
2021/09/19 01:31:13;;;;;;;7.07;3.33;;;;;;;12.66;100.00;100975.25;5132996;27;20183;-73
2021/09/19 01:33:38;;;;;;;4.47;3.20;;;;;;;12.61;100.00;100975.38;5133062;27;20175;-73
2021/09/19 01:36:10;;;;;;;3.10;2.80;;;;;;;12.74;100.00;100979.97;5132991;27;20255;-73
2021/09/19 01:38:36;;;;;;;3.80;3.30;;;;;;;12.65;100.00;100984.59;5132885;27;20717;-73
2021/09/19 01:41:02;;;;;;;5.23;4.33;;;;;;;12.65;100.00;100977.19;5132887;27;20180;-73
2021/09/19 01:43:27;;;;;;;3.33;2.83;;;;;;;12.84;100.00;100984.38;5132772;27;20180;-73
2021/09/19 01:45:52;;;;;;;3.37;3.07;;;;;;;12.77;100.00;100982.91;5132803;27;20180;-73
2021/09/19 01:48:18;;;;;;;3.63;3.13;;;;;;;12.82;100.00;100979.22;5132943;27;20169;-73
2021/09/19 01:50:43;;;;;;;4.20;3.13;;;;;;;12.89;100.00;100984.28;5132767;27;20168;-73
2021/09/19 01:53:09;;;;;;;7.87;3.10;;;;;;;12.89;100.00;100987.81;5113988;27;20211;-73
2021/09/19 01:55:34;;;;;;;5.07;3.40;;;;;;;12.95;100.00;100988.50;5132489;27;20689;-73
2021/09/19 01:58:00;;;;;;;3.07;2.80;;;;;;;12.95;100.00;100983.81;5132569;27;20577;-73
2021/09/19 02:00:28;;;;;;;3.17;2.93;;;;;;;13.00;100.00;100991.91;5131785;27;20195;-73
2021/09/19 02:02:54;;;;;;;3.03;2.83;;;;;;;13.11;100.00;100989.72;5132237;27;20292;-73
2021/09/19 02:05:20;;;;;;;8.80;3.30;;;;;;;13.09;100.00;100986.47;5132157;27;20188;-73
2021/09/19 02:07:45;;;;;;;3.10;2.73;;;;;;;12.85;100.00;100977.78;5132356;27;20178;-73
2021/09/19 02:10:13;;;;;;;3.07;2.83;;;;;;;12.84;100.00;100978.91;5132709;27;20181;-73
2021/09/19 02:12:40;;;;;;;3.13;2.83;;;;;;;12.87;100.00;100973.59;5114157;27;20207;-73
2021/09/19 02:15:07;;;;;;;3.80;2.20;;;;;;;12.78;100.00;100970.81;5132254;27;20654;-73
2021/09/19 02:17:33;;;;;;;3.07;2.77;;;;;;;12.75;100.00;100978.84;5132308;27;20246;-73
2021/09/19 02:19:59;;;;;;;5.50;3.27;;;;;;;12.65;100.00;100976.38;5132326;27;20611;-73
2021/09/19 02:22:24;;;;;;;3.73;3.10;;;;;;;12.57;100.00;100974.34;5113633;27;20208;-74
2021/09/19 02:24:50;;;;;;;6.10;2.80;;;;;;;12.68;100.00;100973.00;5132171;27;20169;-73
2021/09/19 02:27:15;;;;;;;3.80;3.27;;;;;;;12.59;100.00;100964.72;5132178;27;20176;-73
2021/09/19 02:29:40;;;;;;;3.17;2.87;;;;;;;12.64;100.00;100981.03;5113648;27;20203;-73
2021/09/19 02:32:06;;;;;;;2.77;2.57;;;;;;;12.73;100.00;100979.19;5132269;27;20204;-73
2021/09/19 02:34:32;;;;;;;3.43;3.13;;;;;;;12.52;100.00;100967.88;5131807;27;20531;-73
2021/09/19 02:36:58;;;;;;;4.73;2.83;;;;;;;12.48;100.00;100968.84;5132185;27;20639;-73
2021/09/19 02:39:23;;;;;;;3.40;3.10;;;;;;;12.61;100.00;100967.16;5132226;27;20171;-73
2021/09/19 02:41:49;;;;;;;3.70;3.40;;;;;;;12.64;100.00;100969.25;5131955;27;20206;-73
2021/09/19 02:44:14;;;;;;;5.20;3.50;;;;;;;12.50;100.00;100964.66;5131747;27;20187;-73
2021/09/19 02:46:40;;;;;;;3.90;3.47;;;;;;;12.59;100.00;100972.16;5132244;27;20662;-73
2021/09/19 02:49:05;;;;;;;5.90;3.43;;;;;;;12.46;100.00;100968.34;5131899;27;20196;-73
2021/09/19 02:51:30;;;;;;;3.30;3.00;;;;;;;12.52;100.00;100967.88;5131985;27;20178;-73
2021/09/19 02:53:56;;;;;;;3.63;3.17;;;;;;;12.48;100.00;100964.16;5131694;27;20194;-73
2021/09/19 02:56:21;;;;;;;3.87;3.27;;;;;;;12.44;100.00;100965.91;5131844;27;20640;-73
2021/09/19 02:58:47;;;;;;;4.20;3.07;;;;;;;12.42;100.00;100970.88;5131985;27;20227;-73
2021/09/19 03:01:12;;;;;;;3.43;2.90;;;;;;;12.45;100.00;100959.31;5113295;27;20568;-73
2021/09/19 03:03:38;;;;;;;4.33;3.27;;;;;;;12.55;100.00;100968.38;5131515;27;20204;-73
2021/09/19 03:06:03;;;;;;;8.50;4.20;;;;;;;12.33;100.00;100959.03;5131632;27;20621;-73
2021/09/19 03:08:29;;;;;;;4.70;3.13;;;;;;;12.44;100.00;100962.34;5132220;27;20538;-73
2021/09/19 03:10:54;;;;;;;4.07;3.67;;;;;;;12.32;100.00;100959.34;5138899;27;20183;-73
2021/09/19 03:13:19;;;;;;;3.97;3.53;;;;;;;12.24;100.00;100962.81;5133359;27;20207;-73
2021/09/19 03:15:45;;;;;;;3.53;3.23;;;;;;;12.20;100.00;100963.44;5132311;27;20623;-73
2021/09/19 03:18:10;;;;;;;5.60;3.57;;;;;;;12.32;100.00;100956.63;5131898;28;20703;-73
2021/09/19 03:20:36;;;;;;;3.40;3.10;;;;;;;12.15;100.00;100979.19;5131735;27;20182;-73
2021/09/19 03:23:01;;;;;;;5.57;3.30;;;;;;;12.00;100.00;100963.09;5131287;28;20211;-73
2021/09/19 03:25:27;;;;;;;3.17;2.87;;;;;;;12.18;100.00;100973.09;5131744;27;20172;-73
2021/09/19 03:27:52;;;;;;;4.27;2.80;;;;;;;12.24;100.00;100960.91;5131773;28;20255;-73
2021/09/19 03:30:18;;;;;;;3.40;3.10;;;;;;;12.14;100.00;100961.13;5131255;27;20651;-73
2021/09/19 03:32:45;;;;;;;6.73;3.40;;;;;;;11.95;100.00;100957.72;5131214;27;20176;-73
2021/09/19 03:35:11;;;;;;;4.87;3.27;;;;;;;12.00;100.00;100963.09;5131241;27;20169;-73
2021/09/19 03:37:37;;;;;;;3.53;3.23;;;;;;;11.79;100.00;100952.59;5131154;28;20638;-73
2021/09/19 03:40:04;;;;;;;3.93;3.53;;;;;;;11.98;100.00;100960.66;5131070;28;20173;-73
2021/09/19 03:42:30;;;;;;;4.83;2.93;;;;;;;11.90;100.00;100951.25;5130838;28;20745;-73
2021/09/19 03:44:55;;;;;;;5.80;3.40;;;;;;;11.68;100.00;100948.41;5130726;28;20248;-73
2021/09/19 03:47:21;;;;;;;3.57;2.87;;;;;;;11.90;100.00;100955.94;5131068;28;20640;-73
2021/09/19 03:49:47;;;;;;;3.40;3.10;;;;;;;11.95;100.00;100961.28;5112522;27;20639;-73
2021/09/19 03:52:13;;;;;;;5.13;3.10;;;;;;;11.81;100.00;100952.28;5131301;27;20637;-73
2021/09/19 03:54:39;;;;;;;3.83;3.43;;;;;;;11.93;100.00;100946.28;5130733;28;20540;-73
2021/09/19 03:57:04;;;;;;;3.73;3.10;;;;;;;12.02;100.00;100958.13;5131420;28;20180;-73
2021/09/19 03:59:30;;;;;;;3.50;3.20;;;;;;;12.08;100.00;100952.22;5131040;28;20218;-73
2021/09/19 04:01:55;;;;;;;5.07;3.13;;;;;;;11.86;100.00;100953.00;5130824;28;20196;-73
2021/09/19 04:04:20;;;;;;;3.97;3.53;;;;;;;11.96;100.00;100957.44;5130268;28;20267;-73
2021/09/19 04:06:46;;;;;;;4.93;3.50;;;;;;;11.82;100.00;100956.63;5131101;28;20226;-73
2021/09/19 04:09:11;;;;;;;4.00;3.10;;;;;;;11.59;100.00;100947.53;5131228;28;20624;-73
2021/09/19 04:11:37;;;;;;;4.20;3.80;;;;;;;11.56;100.00;100946.19;5112385;28;20169;-72
2021/09/19 04:14:02;;;;;;;4.40;3.33;;;;;;;11.50;100.00;100949.34;5130648;28;20211;-73
2021/09/19 04:16:27;;;;;;;4.30;3.70;;;;;;;11.37;100.00;100945.50;5131142;28;20659;-73
2021/09/19 04:18:53;;;;;;;6.77;3.90;;;;;;;11.43;100.00;100932.53;5131036;28;20175;-73
2021/09/19 04:21:18;;;;;;;7.13;3.20;;;;;;;11.31;100.00;100939.34;5130805;27;20239;-73
2021/09/19 04:23:43;;;;;;;4.17;3.77;;;;;;;11.28;100.00;100950.91;5114285;27;20172;-73
2021/09/19 04:26:09;;;;;;;3.70;3.40;;;;;;;11.29;100.00;100957.97;5134336;27;20412;-73
2021/09/19 04:28:34;;;;;;;4.37;3.80;;;;;;;11.27;100.00;100965.66;5134381;27;20218;-73
2021/09/19 04:31:00;;;;;;;3.77;3.47;;;;;;;11.42;100.00;100971.94;5115926;27;20177;-73
2021/09/19 04:33:25;;;;;;;4.03;3.37;;;;;;;11.34;100.00;100978.94;5134681;27;20172;-73
2021/09/19 04:35:50;;;;;;;4.77;3.63;;;;;;;11.43;100.00;100982.59;5133938;27;20805;-73
2021/09/19 04:38:16;;;;;;;4.23;3.83;;;;;;;11.46;100.00;101005.81;5134322;27;20485;-72
2021/09/19 04:40:41;;;;;;;9.97;4.10;;;;;;;11.43;100.00;100988.09;5134054;27;20169;-73
2021/09/19 04:43:11;;;;;;;3.87;3.17;;;;;;;11.47;100.00;100988.28;5134093;27;20212;-73
2021/09/19 04:45:38;;;;;;;3.83;3.10;;;;;;;11.41;100.00;100994.94;5133851;27;20171;-73
2021/09/19 04:48:03;;;;;;;4.73;3.63;;;;;;;11.43;100.00;101007.22;5133892;27;20268;-73
2021/09/19 04:50:29;;;;;;;6.13;2.97;;;;;;;11.46;100.00;101017.56;5133892;27;20172;-73
2021/09/19 04:52:54;;;;;;;4.50;4.00;;;;;;;11.50;100.00;101021.31;5133672;27;20191;-73
2021/09/19 04:55:19;;;;;;;3.50;3.20;;;;;;;11.38;100.00;101022.91;5133613;27;20251;-73
2021/09/19 04:57:45;;;;;;;5.20;4.00;;;;;;;11.48;100.00;101012.59;5133859;27;20301;-72
2021/09/19 05:00:11;;;;;;;5.10;3.20;;;;;;;11.48;100.00;101022.72;5133782;27;20635;-73
2021/09/19 05:02:36;;;;;;;4.60;3.53;;;;;;;11.57;100.00;101024.47;5133552;27;20299;-73
2021/09/19 05:05:01;;;;;;;3.97;3.67;;;;;;;11.64;100.00;101032.25;5133295;27;20184;-72
2021/09/19 05:07:27;;;;;;;4.33;3.60;;;;;;;11.65;100.00;101020.19;5133931;27;20172;-73
2021/09/19 05:09:52;;;;;;;3.97;3.57;;;;;;;11.64;100.00;101040.47;5133960;27;20180;-73
2021/09/19 05:12:18;;;;;;;3.33;3.03;;;;;;;11.66;100.00;101021.81;5133362;27;20524;-73
2021/09/19 05:14:43;;;;;;;6.07;3.20;;;;;;;11.72;100.00;101031.56;5132914;27;20169;-73
2021/09/19 05:17:08;;;;;;;3.23;2.93;;;;;;;11.78;100.00;101052.25;5133105;27;20269;-73
2021/09/19 05:19:34;;;;;;;4.70;3.83;;;;;;;11.83;100.00;101052.16;5133194;27;20177;-72
2021/09/19 05:21:59;;;;;;;3.90;3.60;;;;;;;11.93;100.00;101045.66;5133034;27;20244;-73
2021/09/19 05:24:24;;;;;;;3.73;3.33;;;;;;;12.00;100.00;101059.75;5132889;27;20492;-73
2021/09/19 05:26:50;;;;;;;4.33;3.00;;;;;;;11.97;100.00;101056.81;5133305;27;20259;-73
2021/09/19 05:29:15;;;;;;;4.90;3.20;;;;;;;11.93;100.00;101042.13;5133156;27;20183;-74
2021/09/19 05:31:40;;;;;;;3.67;3.33;;;;;;;11.94;100.00;101041.81;5133009;27;20632;-72
2021/09/19 05:34:06;;;;;;;3.60;3.30;;;;;;;11.87;100.00;101044.97;5133065;27;20206;-72
2021/09/19 05:36:31;;;;;;;3.90;3.43;;;;;;;11.76;100.00;101040.78;5133032;27;20213;-72
2021/09/19 05:38:57;;;;;;;4.03;3.43;;;;;;;11.61;100.00;101039.16;5132973;27;20179;-72
2021/09/19 05:41:22;;;;;;;5.10;4.37;;;;;;;11.51;100.00;101039.34;5132448;27;20192;-73
2021/09/19 05:43:48;;;;;;;6.60;4.60;;;;;;;11.47;100.00;101040.25;5132607;27;20173;-73
2021/09/19 05:46:13;;;;;;;4.67;4.27;;;;;;;11.47;100.00;101037.53;5132913;27;20180;-73
2021/09/19 05:48:39;;;;;;;4.73;4.00;;;;;;;11.46;100.00;101049.59;5132850;27;20259;-73
2021/09/19 05:51:05;;;;;;;4.67;4.27;;;;;;;11.44;100.00;101046.34;5132765;27;20212;-73
2021/09/19 05:53:30;;;;;;;4.83;4.03;;;;;;;11.47;100.00;101038.34;5114245;27;20203;-73
2021/09/19 05:55:55;;;;;;;4.20;3.90;;;;;;;11.48;100.00;101039.97;5132737;27;20250;-74
2021/09/19 05:58:21;;;;;;;4.43;4.00;;;;;;;11.48;100.00;101033.69;5132919;27;20596;-73
2021/09/19 06:00:46;;;;;;;5.30;4.80;;;;;;;11.46;100.00;101046.84;5132727;27;20264;-73
2021/09/19 06:03:11;;;;;;;4.40;4.00;;;;;;;11.46;100.00;101042.19;5132273;27;20257;-73
2021/09/19 06:05:37;;;;;;;5.97;4.17;;;;;;;11.54;100.00;101046.13;5132216;27;20223;-73
2021/09/19 06:08:02;;;;;;;6.23;4.20;;;;;;;11.49;100.00;101046.25;5132570;27;20192;-73
2021/09/19 06:10:28;;;;;;;4.40;4.00;;;;;;;11.49;100.00;101047.06;5132594;27;20169;-73
2021/09/19 06:12:53;;;;;;;4.60;4.20;;;;;;;11.54;100.00;101049.69;5131674;27;20287;-75
2021/09/19 06:15:18;;;;;;;6.00;4.53;;;;;;;11.47;100.00;101043.00;5131897;27;20669;-75
2021/09/19 06:17:44;;;;;;;4.63;4.13;;;;;;;11.42;100.00;101032.13;5132082;27;20267;-75
2021/09/19 06:20:09;;;;;;;4.50;4.10;;;;;;;11.44;100.00;101040.88;5132088;27;20647;-75
2021/09/19 06:22:35;;;;;;;4.10;3.70;;;;;;;11.48;100.00;101039.16;5132268;27;20517;-77
2021/09/19 06:25:00;;;;;;;4.10;3.70;;;;;;;11.53;100.00;101039.84;5132131;27;20165;-72
2021/09/19 06:27:26;;;;;;;4.17;3.77;;;;;;;11.51;100.00;101044.81;5132192;27;20598;-72
2021/09/19 06:29:51;;;;;;;3.97;3.67;;;;;;;11.51;100.00;101044.81;5113709;27;20195;-73
2021/09/19 06:32:16;;;;;;;4.60;4.20;;;;;;;11.53;100.00;101041.78;5113452;27;20658;-72
2021/09/19 06:34:42;;;;;;;4.30;3.90;;;;;;;11.52;100.00;101037.41;5111416;27;20443;-72
2021/09/19 06:37:07;;;;;;;5.27;3.40;;;;;;;11.56;100.00;101039.25;5131810;27;20168;-72
2021/09/19 06:39:33;;;;;;;4.03;3.73;;;;;;;11.65;100.00;101030.34;5132218;27;20176;-72
2021/09/19 06:41:59;;;;;;;4.03;3.63;;;;;;;11.59;100.00;101035.91;5131770;27;20287;-72
2021/09/19 06:44:24;;;;;;;3.77;3.47;;;;;;;11.69;100.00;101034.88;5130925;27;20737;-72
2021/09/19 06:46:53;;;;;;;5.30;4.10;;;;;;;11.74;100.00;101040.28;5131203;27;20164;-72
2021/09/19 06:49:19;;;;;;;3.70;3.40;;;;;;;11.75;100.00;101041.91;5131492;27;20225;-72
2021/09/19 06:51:45;;;;;;;4.73;3.73;;;;;;;11.70;100.00;101041.97;5131597;27;20177;-72
2021/09/19 06:54:10;;;;;;;4.20;3.90;;;;;;;11.74;100.00;101037.53;5130822;27;20172;-73
2021/09/19 06:56:36;;;;;;;5.17;2.93;;;;;;;11.80;100.00;101043.75;5131502;27;20220;-72
2021/09/19 06:59:01;;;;;;;3.40;3.10;;;;;;;11.82;100.00;101038.78;5126651;27;20267;-72
2021/09/19 07:01:27;;;;;;;8.13;3.53;;;;;;;11.72;100.00;101033.50;5129054;27;20196;-72
2021/09/19 07:03:52;;;;;;;3.40;3.10;;;;;;;11.73;100.00;101035.94;5121131;27;20164;-72
2021/09/19 07:06:18;;;;;;;2.93;2.63;;;;;;;11.78;100.00;101029.53;5131885;27;20272;-72
2021/09/19 07:08:44;;;;;;;4.17;3.53;;;;;;;11.79;100.00;101034.72;5131433;27;20177;-72
2021/09/19 07:11:10;;;;;;;4.40;3.73;;;;;;;11.83;100.00;101034.91;5131384;27;20251;-72
2021/09/19 07:13:36;;;;;;;5.37;3.30;;;;;;;11.87;100.00;101039.50;5131305;27;20180;-72
2021/09/19 07:16:01;;;;;;;3.47;3.17;;;;;;;12.00;100.00;101040.56;5131334;27;20173;-72
2021/09/19 07:18:26;;;;;;;4.27;3.80;;;;;;;12.02;100.00;101035.63;5131508;28;20169;-72
2021/09/19 07:20:53;;;;;;;3.37;3.07;;;;;;;12.04;100.00;101036.13;5131303;28;20179;-73
2021/09/19 07:23:19;;;;;;;3.40;2.93;;;;;;;12.03;100.00;101034.50;5131371;28;20199;-73
2021/09/19 07:25:45;;;;;;;3.53;2.93;;;;;;;12.20;100.00;101040.16;5131209;28;20184;-72
2021/09/19 07:28:11;;;;;;;3.93;3.40;;;;;;;12.29;100.00;101042.16;5131562;28;20176;-73
2021/09/19 07:30:37;;;;;;;4.30;3.00;;;;;;;12.28;100.00;101035.06;5112462;27;20229;-73
2021/09/19 07:33:03;;;;;;;3.67;2.73;;;;;;;12.36;100.00;101042.56;5131121;28;20182;-73
2021/09/19 07:35:29;;;;;;;3.87;3.43;;;;;;;12.43;100.00;101042.94;5130916;28;20179;-73
2021/09/19 07:37:54;;;;;;;3.70;3.40;;;;;;;12.40;100.00;101043.56;5131536;28;20180;-72
2021/09/19 07:40:22;;;;;;;3.57;3.27;;;;;;;12.51;100.00;101051.25;5131266;27;20540;-73
2021/09/19 07:42:48;;;;;;;3.57;3.27;;;;;;;12.49;100.00;101047.19;5130948;27;20199;-73
2021/09/19 07:45:14;;;;;;;3.57;3.23;;;;;;;12.52;100.00;101041.91;5130671;27;20214;-73
2021/09/19 07:47:40;;;;;;;2.60;2.33;;;;;;;12.52;100.00;101050.13;5130957;28;20173;-73
2021/09/19 07:50:08;;;;;;;2.83;2.63;;;;;;;12.65;100.00;101055.88;5131209;28;20172;-73
2021/09/19 07:52:33;;;;;;;3.13;2.87;;;;;;;12.56;100.00;101050.31;5130985;28;20172;-73
2021/09/19 07:54:59;;;;;;;2.83;2.63;;;;;;;12.59;100.00;101048.91;5131062;28;20511;-73
2021/09/19 07:57:25;;;;;;;3.47;3.17;;;;;;;12.70;100.00;101045.56;5132941;27;20172;-73
2021/09/19 07:59:51;;;;;;;3.87;2.67;;;;;;;12.73;100.00;101047.72;5135030;27;20218;-73
2021/09/19 08:02:17;;;;;;;3.53;3.23;;;;;;;12.61;100.00;101052.94;5134874;27;20200;-73
2021/09/19 08:04:42;;;;;;;2.60;2.40;;;;;;;12.75;100.00;101063.88;5134651;27;20632;-72
2021/09/19 08:07:08;;;;;;;3.20;2.70;;;;;;;12.74;100.00;101060.31;5134810;27;20636;-73
2021/09/19 08:09:33;;;;;;;6.30;2.50;;;;;;;12.75;100.00;101066.59;5134810;27;20638;-73
2021/09/19 08:11:59;;;;;;;3.43;2.70;;;;;;;12.86;100.00;101067.94;5134747;27;20175;-72
2021/09/19 08:14:25;;;;;;;4.37;2.37;;;;;;;12.94;100.00;101064.47;5134437;27;20183;-73
2021/09/19 08:16:50;;;;;;;4.23;2.83;;;;;;;12.80;100.00;101066.47;5135116;27;20222;-73
2021/09/19 08:19:16;;;;;;;4.10;2.33;;;;;;;12.88;100.00;101067.66;5134797;27;20173;-73
2021/09/19 08:21:41;;;;;;;2.47;2.27;;;;;;;12.90;100.00;101066.22;5135077;27;20200;-72
2021/09/19 08:24:10;;;;;;;2.90;2.23;;;;;;;13.00;100.00;101067.91;5134361;27;20173;-72
2021/09/19 08:26:37;;;;;;;4.17;3.20;;;;;;;13.06;100.00;101064.72;5116186;27;20615;-72
2021/09/19 08:29:02;;;;;;;2.80;2.40;;;;;;;13.02;100.00;101068.41;5134576;27;20659;-73
2021/09/19 08:31:28;;;;;;;3.97;2.87;;;;;;;12.84;99.23;101061.97;5134519;27;20173;-73
2021/09/19 08:33:53;;;;;;;4.20;2.70;;;;;;;12.85;98.51;101071.81;5134349;27;20179;-73
2021/09/19 08:36:19;;;;;;;4.23;2.80;;;;;;;13.00;100.00;101068.69;5134460;27;20388;-72
2021/09/19 08:38:45;;;;;;;2.97;2.70;;;;;;;13.06;100.00;101067.47;5116032;27;20169;-72
2021/09/19 08:41:10;;;;;;;2.67;2.47;;;;;;;12.97;98.60;101076.75;5134306;27;20180;-73
2021/09/19 08:43:35;;;;;;;3.70;2.47;;;;;;;12.96;100.00;101072.38;5134208;27;20173;-73
2021/09/19 08:46:01;;;;;;;2.93;2.33;;;;;;;13.13;99.62;101078.00;5134495;27;20612;-73
2021/09/19 08:48:28;;;;;;;3.47;2.40;;;;;;;12.97;98.36;101085.78;5134157;27;20164;-72
2021/09/19 08:50:54;;;;;;;2.60;2.17;;;;;;;13.02;97.12;101071.97;5134282;27;20172;-73
2021/09/19 08:53:23;;;;;;;4.83;2.20;;;;;;;12.96;97.62;101086.91;5134097;27;20640;-72
2021/09/19 08:55:49;;;;;;;2.90;2.27;;;;;;;13.04;98.92;101080.69;5115489;27;20212;-72
2021/09/19 08:58:14;;;;;;;3.10;2.80;;;;;;;12.93;94.06;101087.53;5134091;27;20204;-72
2021/09/19 09:00:49;;;;;;;2.73;2.43;;;;;;;12.92;93.69;101085.94;5134340;27;20561;-72
2021/09/19 09:03:25;;;;;;;3.13;2.30;;;;;;;13.01;95.49;101085.97;5133990;27;20199;-73
2021/09/19 09:05:56;;;;;;;2.50;2.30;;;;;;;12.98;94.55;101087.41;5133772;27;20188;-72
2021/09/19 09:08:22;;;;;;;3.13;2.53;;;;;;;12.86;95.50;101089.09;5133435;27;20599;-72
2021/09/19 09:10:49;;;;;;;2.77;2.57;;;;;;;12.88;96.17;101090.41;5133881;27;20175;-71
2021/09/19 09:13:16;;;;;;;6.00;2.90;;;;;;;12.84;97.78;101085.84;5133827;27;20259;-70
2021/09/19 09:15:48;;;;;;;2.90;2.70;;;;;;;12.93;98.20;101098.50;5115126;27;20288;-75
2021/09/19 09:18:34;;;;;;;2.67;2.33;;;;;;;12.88;95.96;101093.16;5133738;27;20203;-69
2021/09/19 09:21:05;;;;;;;2.87;2.60;;;;;;;12.89;94.93;101089.28;5133839;27;20180;-75
2021/09/19 09:23:38;;;;;;;3.80;2.13;;;;;;;12.81;97.34;101090.03;5133628;27;20581;-75
2021/09/19 09:26:26;;;;;;;3.10;2.80;;;;;;;12.93;97.53;101095.78;5133528;27;20173;-75
2021/09/19 09:28:55;;;;;;;3.33;2.90;;;;;;;12.85;98.32;101093.75;5133760;27;20165;-75
2021/09/19 09:31:25;;;;;;;2.87;2.67;;;;;;;12.84;98.28;101091.34;5133544;27;20226;-75
2021/09/19 09:34:06;;;;;;;4.20;2.50;;;;;;;12.97;98.88;101096.75;5136392;27;20180;-74
2021/09/19 09:36:52;;;;;;;3.20;2.90;;;;;;;13.04;98.49;101097.16;5137787;27;20164;-74
2021/09/19 09:39:34;;;;;;;2.80;2.53;;;;;;;12.89;97.84;101100.25;5112318;27;20222;-75
2021/09/19 09:42:17;;;;;;;3.47;3.17;;;;;;;12.73;99.36;101093.50;5133360;27;20200;-75
2021/09/19 09:44:50;;;;;;;3.13;2.83;;;;;;;12.75;97.91;101094.84;5133586;27;20173;-75
2021/09/19 09:47:24;;;;;;;4.43;3.10;;;;;;;12.77;99.11;101089.84;5133106;27;20177;-75
2021/09/19 09:49:53;;;;;;;2.93;2.63;;;;;;;12.72;98.50;101091.88;5133529;27;20176;-75
2021/09/19 09:52:23;;;;;;;2.97;2.67;;;;;;;12.86;98.88;101092.63;5133019;27;20640;-74
2021/09/19 09:54:54;;;;;;;3.07;2.83;;;;;;;12.90;98.05;101090.09;5132580;27;20177;-75
2021/09/19 09:57:51;;;;;;;3.10;2.80;;;;;;;12.93;97.48;101090.28;5132787;27;20196;-74
2021/09/19 10:00:19;;;;;;;2.90;2.70;;;;;;;12.95;98.17;101090.78;5133176;27;20176;-73
2021/09/19 10:02:47;;;;;;;3.77;2.60;;;;;;;13.04;96.10;101088.94;5132746;27;20274;-72
2021/09/19 10:05:14;;;;;;;4.13;2.07;;;;;;;13.14;93.50;101092.50;5132490;27;20188;-73
2021/09/19 10:07:41;;;;;;;3.00;2.47;;;;;;;13.20;91.80;101092.13;5132595;27;20164;-73
2021/09/19 10:10:09;;;;;;;2.37;2.17;;;;;;;13.14;92.34;101092.50;5132698;27;20285;-73
2021/09/19 10:12:35;;;;;;;4.07;2.17;;;;;;;13.13;90.91;101088.97;5132452;27;20176;-73
2021/09/19 10:15:00;;;;;;;2.47;2.27;;;;;;;13.17;91.89;101084.50;5132162;27;20165;-73
2021/09/19 10:17:31;;;;;;;2.37;2.17;;;;;;;13.18;91.77;101093.53;5132374;27;20670;-73
2021/09/19 10:19:58;;;;;;;2.30;1.93;;;;;;;12.97;92.50;101085.78;5131770;27;20177;-73
2021/09/19 10:22:33;;;;;;;2.53;2.30;;;;;;;13.15;93.92;101094.94;5131801;27;20211;-73
2021/09/19 10:24:59;;;;;;;2.53;2.30;;;;;;;13.27;92.55;100973.66;5132183;27;20251;-73
2021/09/19 10:27:30;;;;;;;1.90;1.70;;;;;;;13.13;92.36;101230.81;5132453;27;20260;-72
2021/09/19 10:30:14;;;;;;;2.20;2.00;;;;;;;13.10;91.88;101117.84;5132022;27;20255;-73
2021/09/19 10:32:42;;;;;;;3.53;1.90;;;;;;;13.01;90.61;101095.00;5132265;27;20199;-73
2021/09/19 10:35:31;;;;;;;1.30;1.20;;;;;;;13.11;90.85;101100.25;5131671;27;20208;-73
2021/09/19 10:38:04;;;;;;;2.30;1.63;;;;;;;13.27;89.92;101083.44;5098075;27;20288;-73
2021/09/19 10:40:34;;;;;;;2.10;1.90;;;;;;;13.34;88.16;101073.66;5131687;27;20180;-73
2021/09/19 10:43:00;;;;;;;3.03;1.83;;;;;;;13.37;87.09;101075.75;5131566;27;20212;-73
2021/09/19 10:45:45;;;;;;;2.27;1.40;;;;;;;13.47;85.54;101074.69;5131443;27;20667;-72
2021/09/19 10:48:15;;;;;;;2.23;1.50;;;;;;;13.57;85.47;101074.41;5131587;27;20168;-73
2021/09/19 10:50:43;;;;;;;2.37;1.50;;;;;;;13.55;86.43;101081.34;5131729;27;20176;-73
2021/09/19 10:53:17;;;;;;;2.27;1.63;;;;;;;13.47;86.55;101071.13;5131944;27;20187;-72
2021/09/19 10:56:03;;;;;;;2.40;1.43;;;;;;;13.60;85.69;101087.53;5131565;27;20209;-73
2021/09/19 10:58:32;;;;;;;2.00;1.77;;;;;;;13.62;84.44;101088.00;5131694;27;20529;-73
2021/09/19 11:01:31;;;;;;;1.33;1.23;;;;;;;13.61;81.76;101093.81;5131534;27;20573;-73
2021/09/19 11:04:00;;;;;;;1.97;1.73;;;;;;;13.54;82.28;101096.19;5131230;27;20184;-72
2021/09/19 11:06:35;;;;;;;1.70;1.60;;;;;;;13.38;83.10;101088.34;5113131;27;20213;-73
2021/09/19 11:09:27;;;;;;;1.73;1.47;;;;;;;13.43;85.02;101092.88;5131387;27;20200;-73
2021/09/19 11:12:10;;;;;;;3.27;1.90;;;;;;;13.24;84.66;101081.31;5131316;27;20172;-73
2021/09/19 11:15:06;;;;;;;2.57;2.00;;;;;;;13.27;85.17;101087.00;5131199;27;20624;-73
2021/09/19 11:17:34;;;;;;;2.60;1.50;;;;;;;13.29;86.51;101083.94;5131466;27;20399;-73
2021/09/19 11:20:15;;;;;;;2.57;1.63;;;;;;;13.32;85.99;101086.06;5131330;27;20573;-73